Dein Weg zu uns

Mit dem Auto

Kostenlose Parkplätze sind vorhanden und ausgeschildert.

Mit dem Flugzeug

Der Sonderlandeplatz Donzdorf EDPM liegt an der Nordwestkante der Schwäbischen Alb, direkt oberhalb der Stadt Donzdorf.

  • Lage: 48° 40,72 N, 09° 50,75 E; 1,5nm ESE von Donzdorf
    080°/24nm from TGO VORTAC 112.500
    208°/32nm from DKB DVORTAC 117.800
  • Elevation: 2272 ft, 693 m
  • Bahn: 09/27, 600m x 10m, Asphalt
  • Platzrunde: Süd, 3100 ft (Segelflug: Nord)
  • Funk: Donzdorf Info 122.600
  • FIS: Langen Information 128.950
  • ATIS: Stuttgart ATIS 126.125
  • Tel: C: 07162/23303
  • AIS: Frankfurt Tel. 069/78072511, 01803/337247, Fax 069/78072515
  • AIS: München Tel. 069/78072512, Fax 069/78072515
  • MET: 0900/1077227
  • Sprit: –
  • Zoll: –
  • UL-Zulassung: Ja

Weitere Informationen sind auf der Website der Fliegergruppe Donzdorf zu finden.

Stuttgart EDDS
STUTTGART/ECHTER
Metar
EDDS 250120Z 00000KT 9999 -RA SCT048 SCT070 BKN120 08/07 Q1011

01:20 UTC

Wind: 0° 0kt

Visibility: 9999 m

Sky: SCT 4800 ft

Temp: 8 deg C / 46.4 deg F

Dewpoint: 7 deg C / 44.6 deg F

Pressure: 1011 hPa

TAF
TAF EDDS 242300Z 2500/2524 22004KT 9999 FEW020 BKN040 PROB30 TEMPO 2500/2504 RA TEMPO 2505/2513 3500 +RA BKN010 BECMG 2506/2509 29009KT TEMPO 2513/2518 SHRA BKN012 BKN020TCU PROB40 TEMPO 2518/2524 2500 SHSNRA BKN008 BKN015TCU